sensor_id;sensor_type;location;lat;lon;timestamp;temperature;humidity
52965;DHT22;42923;53.220;6.528;2023-05-07T00:01:43;11.90;99.90
52965;DHT22;42923;53.220;6.528;2023-05-07T00:04:09;11.90;99.90
52965;DHT22;42923;53.220;6.528;2023-05-07T00:06:35;11.80;99.90
52965;DHT22;42923;53.220;6.528;2023-05-07T00:09:01;11.90;99.90
52965;DHT22;42923;53.220;6.528;2023-05-07T00:11:27;11.80;99.90
52965;DHT22;42923;53.220;6.528;2023-05-07T00:13:53;11.80;99.90
52965;DHT22;42923;53.220;6.528;2023-05-07T00:16:19;11.80;99.90
52965;DHT22;42923;53.220;6.528;2023-05-07T00:18:45;11.80;99.90
52965;DHT22;42923;53.220;6.528;2023-05-07T00:21:10;11.70;99.90
52965;DHT22;42923;53.220;6.528;2023-05-07T00:23:36;11.60;99.90
52965;DHT22;42923;53.220;6.528;2023-05-07T00:26:03;11.70;99.90
52965;DHT22;42923;53.220;6.528;2023-05-07T00:28:29;11.60;99.90
52965;DHT22;42923;53.220;6.528;2023-05-07T00:30:55;11.60;99.90
52965;DHT22;42923;53.220;6.528;2023-05-07T00:33:21;11.60;99.90
52965;DHT22;42923;53.220;6.528;2023-05-07T00:35:48;11.50;99.90
52965;DHT22;42923;53.220;6.528;2023-05-07T00:38:14;11.50;99.90
52965;DHT22;42923;53.220;6.528;2023-05-07T00:40:39;11.40;99.90
52965;DHT22;42923;53.220;6.528;2023-05-07T00:43:05;11.50;99.90
52965;DHT22;42923;53.220;6.528;2023-05-07T00:45:32;11.40;99.90
52965;DHT22;42923;53.220;6.528;2023-05-07T00:48:00;11.40;99.90
52965;DHT22;42923;53.220;6.528;2023-05-07T00:50:29;11.40;99.90
52965;DHT22;42923;53.220;6.528;2023-05-07T00:52:55;11.40;99.90
52965;DHT22;42923;53.220;6.528;2023-05-07T00:55:23;11.40;99.90
52965;DHT22;42923;53.220;6.528;2023-05-07T00:57:50;11.30;99.90
52965;DHT22;42923;53.220;6.528;2023-05-07T01:00:16;11.30;99.90
52965;DHT22;42923;53.220;6.528;2023-05-07T01:02:42;11.30;99.90
52965;DHT22;42923;53.220;6.528;2023-05-07T01:05:12;11.30;99.90
52965;DHT22;42923;53.220;6.528;2023-05-07T01:07:40;11.30;99.90
52965;DHT22;42923;53.220;6.528;2023-05-07T01:10:08;11.30;99.90
52965;DHT22;42923;53.220;6.528;2023-05-07T01:12:38;11.20;99.90
52965;DHT22;42923;53.220;6.528;2023-05-07T01:15:06;11.20;99.90
52965;DHT22;42923;53.220;6.528;2023-05-07T01:17:37;11.20;99.90
52965;DHT22;42923;53.220;6.528;2023-05-07T01:20:05;11.20;99.90
52965;DHT22;42923;53.220;6.528;2023-05-07T01:22:32;11.20;99.90
52965;DHT22;42923;53.220;6.528;2023-05-07T01:24:59;11.30;99.90
52965;DHT22;42923;53.220;6.528;2023-05-07T01:27:27;11.20;99.90
52965;DHT22;42923;53.220;6.528;2023-05-07T01:29:53;11.10;99.90
52965;DHT22;42923;53.220;6.528;2023-05-07T01:35:09;11.10;99.90
52965;DHT22;42923;53.220;6.528;2023-05-07T01:37:35;11.10;99.90
52965;DHT22;42923;53.220;6.528;2023-05-07T01:40:02;11.10;99.90
52965;DHT22;42923;53.220;6.528;2023-05-07T01:42:29;11.10;99.90
52965;DHT22;42923;53.220;6.528;2023-05-07T01:44:55;11.10;99.90
52965;DHT22;42923;53.220;6.528;2023-05-07T01:47:21;11.10;99.90
52965;DHT22;42923;53.220;6.528;2023-05-07T01:49:48;11.10;99.90
52965;DHT22;42923;53.220;6.528;2023-05-07T01:52:14;11.10;99.90
52965;DHT22;42923;53.220;6.528;2023-05-07T01:54:39;11.10;99.90
52965;DHT22;42923;53.220;6.528;2023-05-07T01:57:05;11.10;99.90
52965;DHT22;42923;53.220;6.528;2023-05-07T01:59:31;11.00;99.90
52965;DHT22;42923;53.220;6.528;2023-05-07T02:01:57;11.00;99.90
52965;DHT22;42923;53.220;6.528;2023-05-07T02:04:23;11.00;99.90
52965;DHT22;42923;53.220;6.528;2023-05-07T02:06:50;11.00;99.90
52965;DHT22;42923;53.220;6.528;2023-05-07T02:09:16;11.00;99.90
52965;DHT22;42923;53.220;6.528;2023-05-07T02:11:44;10.90;99.90
52965;DHT22;42923;53.220;6.528;2023-05-07T02:14:10;10.90;99.90
52965;DHT22;42923;53.220;6.528;2023-05-07T02:16:36;10.90;99.90
52965;DHT22;42923;53.220;6.528;2023-05-07T02:19:02;10.90;99.90
52965;DHT22;42923;53.220;6.528;2023-05-07T02:21:27;10.90;99.90
52965;DHT22;42923;53.220;6.528;2023-05-07T02:23:53;10.90;99.90
52965;DHT22;42923;53.220;6.528;2023-05-07T02:26:19;10.80;99.90
52965;DHT22;42923;53.220;6.528;2023-05-07T02:28:47;10.80;99.90
52965;DHT22;42923;53.220;6.528;2023-05-07T02:31:12;10.90;99.90
52965;DHT22;42923;53.220;6.528;2023-05-07T02:33:38;10.80;99.90
52965;DHT22;42923;53.220;6.528;2023-05-07T02:36:10;10.80;99.90
52965;DHT22;42923;53.220;6.528;2023-05-07T02:38:45;10.80;99.90
52965;DHT22;42923;53.220;6.528;2023-05-07T02:41:11;10.80;99.90
52965;DHT22;42923;53.220;6.528;2023-05-07T02:43:37;10.80;99.90
52965;DHT22;42923;53.220;6.528;2023-05-07T02:46:07;10.80;99.90
52965;DHT22;42923;53.220;6.528;2023-05-07T02:48:36;10.80;99.90
52965;DHT22;42923;53.220;6.528;2023-05-07T02:51:03;10.80;99.90
52965;DHT22;42923;53.220;6.528;2023-05-07T02:53:29;10.80;99.90
52965;DHT22;42923;53.220;6.528;2023-05-07T02:55:57;10.80;99.90
52965;DHT22;42923;53.220;6.528;2023-05-07T02:58:22;11.00;99.90
52965;DHT22;42923;53.220;6.528;2023-05-07T03:00:48;10.80;99.90
52965;DHT22;42923;53.220;6.528;2023-05-07T03:03:25;10.80;99.90
52965;DHT22;42923;53.220;6.528;2023-05-07T03:05:50;10.70;99.90
52965;DHT22;42923;53.220;6.528;2023-05-07T03:08:17;10.70;99.90
52965;DHT22;42923;53.220;6.528;2023-05-07T03:10:42;10.80;99.90
52965;DHT22;42923;53.220;6.528;2023-05-07T03:13:08;10.80;99.90
52965;DHT22;42923;53.220;6.528;2023-05-07T03:15:34;10.80;99.90
52965;DHT22;42923;53.220;6.528;2023-05-07T03:18:00;10.70;99.90
52965;DHT22;42923;53.220;6.528;2023-05-07T03:20:25;10.70;99.90
52965;DHT22;42923;53.220;6.528;2023-05-07T03:22:51;10.70;99.90
52965;DHT22;42923;53.220;6.528;2023-05-07T03:25:17;10.70;99.90
52965;DHT22;42923;53.220;6.528;2023-05-07T03:27:43;10.70;99.90
52965;DHT22;42923;53.220;6.528;2023-05-07T03:30:09;10.70;99.90
52965;DHT22;42923;53.220;6.528;2023-05-07T03:32:35;10.70;99.90
52965;DHT22;42923;53.220;6.528;2023-05-07T03:35:05;10.70;99.90
52965;DHT22;42923;53.220;6.528;2023-05-07T03:37:31;10.70;99.90
52965;DHT22;42923;53.220;6.528;2023-05-07T03:39:57;10.70;99.90
52965;DHT22;42923;53.220;6.528;2023-05-07T03:42:23;10.60;99.90
52965;DHT22;42923;53.220;6.528;2023-05-07T03:44:51;10.60;99.90
52965;DHT22;42923;53.220;6.528;2023-05-07T03:47:17;10.60;99.90
52965;DHT22;42923;53.220;6.528;2023-05-07T03:49:44;10.60;99.90
52965;DHT22;42923;53.220;6.528;2023-05-07T03:52:11;10.60;99.90
52965;DHT22;42923;53.220;6.528;2023-05-07T03:54:37;10.60;99.90
52965;DHT22;42923;53.220;6.528;2023-05-07T03:57:03;10.60;99.90
52965;DHT22;42923;53.220;6.528;2023-05-07T03:59:29;10.50;99.90
52965;DHT22;42923;53.220;6.528;2023-05-07T04:01:55;10.50;99.90
52965;DHT22;42923;53.220;6.528;2023-05-07T04:04:23;10.50;99.90
52965;DHT22;42923;53.220;6.528;2023-05-07T04:06:48;10.50;99.90
52965;DHT22;42923;53.220;6.528;2023-05-07T04:09:15;10.50;99.90
52965;DHT22;42923;53.220;6.528;2023-05-07T04:11:40;10.50;99.90
52965;DHT22;42923;53.220;6.528;2023-05-07T04:14:08;10.50;99.90
52965;DHT22;42923;53.220;6.528;2023-05-07T04:16:35;10.40;99.90
52965;DHT22;42923;53.220;6.528;2023-05-07T04:19:01;10.40;99.90
52965;DHT22;42923;53.220;6.528;2023-05-07T04:21:27;10.40;99.90
52965;DHT22;42923;53.220;6.528;2023-05-07T04:23:54;10.40;99.90
52965;DHT22;42923;53.220;6.528;2023-05-07T04:26:19;10.40;99.90
52965;DHT22;42923;53.220;6.528;2023-05-07T04:28:46;10.40;99.90
52965;DHT22;42923;53.220;6.528;2023-05-07T04:31:14;10.40;99.90
52965;DHT22;42923;53.220;6.528;2023-05-07T04:33:40;10.40;99.90
52965;DHT22;42923;53.220;6.528;2023-05-07T04:36:09;10.40;99.90
52965;DHT22;42923;53.220;6.528;2023-05-07T04:38:42;10.40;99.90
52965;DHT22;42923;53.220;6.528;2023-05-07T04:41:09;10.40;99.90
52965;DHT22;42923;53.220;6.528;2023-05-07T04:43:39;10.40;99.90
52965;DHT22;42923;53.220;6.528;2023-05-07T04:46:05;10.40;99.90
52965;DHT22;42923;53.220;6.528;2023-05-07T04:48:31;10.40;99.90
52965;DHT22;42923;53.220;6.528;2023-05-07T04:50:58;10.40;99.90
52965;DHT22;42923;53.220;6.528;2023-05-07T04:53:24;10.40;99.90
52965;DHT22;42923;53.220;6.528;2023-05-07T04:55:57;10.40;99.90
52965;DHT22;42923;53.220;6.528;2023-05-07T04:58:25;10.40;99.90
52965;DHT22;42923;53.220;6.528;2023-05-07T05:00:52;10.40;99.90
52965;DHT22;42923;53.220;6.528;2023-05-07T05:03:17;10.50;99.90
52965;DHT22;42923;53.220;6.528;2023-05-07T05:05:44;10.40;99.90
52965;DHT22;42923;53.220;6.528;2023-05-07T05:08:10;10.40;99.90
52965;DHT22;42923;53.220;6.528;2023-05-07T05:10:38;10.50;99.90
52965;DHT22;42923;53.220;6.528;2023-05-07T05:13:05;10.40;99.90
52965;DHT22;42923;53.220;6.528;2023-05-07T05:15:31;10.50;99.90
52965;DHT22;42923;53.220;6.528;2023-05-07T05:17:57;10.50;99.90
52965;DHT22;42923;53.220;6.528;2023-05-07T05:20:22;10.50;99.90
52965;DHT22;42923;53.220;6.528;2023-05-07T05:22:48;10.50;99.90
52965;DHT22;42923;53.220;6.528;2023-05-07T05:25:14;10.50;99.90
52965;DHT22;42923;53.220;6.528;2023-05-07T05:27:40;10.50;99.90
52965;DHT22;42923;53.220;6.528;2023-05-07T05:30:06;10.50;99.90
52965;DHT22;42923;53.220;6.528;2023-05-07T05:32:33;10.50;99.90
52965;DHT22;42923;53.220;6.528;2023-05-07T05:34:59;10.60;99.90
52965;DHT22;42923;53.220;6.528;2023-05-07T05:37:25;10.60;99.90
52965;DHT22;42923;53.220;6.528;2023-05-07T05:39:53;10.50;99.90
52965;DHT22;42923;53.220;6.528;2023-05-07T05:42:21;10.60;99.90
52965;DHT22;42923;53.220;6.528;2023-05-07T05:44:46;10.50;99.90
52965;DHT22;42923;53.220;6.528;2023-05-07T05:47:13;10.60;99.90
52965;DHT22;42923;53.220;6.528;2023-05-07T05:49:38;10.60;99.90
52965;DHT22;42923;53.220;6.528;2023-05-07T05:52:06;10.60;99.90
52965;DHT22;42923;53.220;6.528;2023-05-07T05:54:31;10.60;99.90
52965;DHT22;42923;53.220;6.528;2023-05-07T05:56:57;10.60;99.90
52965;DHT22;42923;53.220;6.528;2023-05-07T05:59:24;10.50;99.90
52965;DHT22;42923;53.220;6.528;2023-05-07T06:01:52;10.60;99.90
52965;DHT22;42923;53.220;6.528;2023-05-07T06:04:17;10.60;99.90
52965;DHT22;42923;53.220;6.528;2023-05-07T06:06:43;10.60;99.90
52965;DHT22;42923;53.220;6.528;2023-05-07T06:09:09;10.70;99.90
52965;DHT22;42923;53.220;6.528;2023-05-07T06:11:40;10.70;99.90
52965;DHT22;42923;53.220;6.528;2023-05-07T06:14:07;10.70;99.90
52965;DHT22;42923;53.220;6.528;2023-05-07T06:16:33;10.80;99.90
52965;DHT22;42923;53.220;6.528;2023-05-07T06:18:59;10.80;99.90
52965;DHT22;42923;53.220;6.528;2023-05-07T06:21:25;10.90;99.90
52965;DHT22;42923;53.220;6.528;2023-05-07T06:23:51;10.90;99.90
52965;DHT22;42923;53.220;6.528;2023-05-07T06:26:18;11.00;99.90
52965;DHT22;42923;53.220;6.528;2023-05-07T06:28:46;11.00;99.90
52965;DHT22;42923;53.220;6.528;2023-05-07T06:31:19;11.10;99.90
52965;DHT22;42923;53.220;6.528;2023-05-07T06:33:59;11.10;99.90
52965;DHT22;42923;53.220;6.528;2023-05-07T06:36:31;11.10;99.90
52965;DHT22;42923;53.220;6.528;2023-05-07T06:38:59;11.20;99.90
52965;DHT22;42923;53.220;6.528;2023-05-07T06:41:25;11.20;99.90
52965;DHT22;42923;53.220;6.528;2023-05-07T06:43:51;11.20;99.90
52965;DHT22;42923;53.220;6.528;2023-05-07T06:46:38;11.20;99.90
52965;DHT22;42923;53.220;6.528;2023-05-07T06:49:05;11.30;99.90
52965;DHT22;42923;53.220;6.528;2023-05-07T06:51:31;11.30;99.90
52965;DHT22;42923;53.220;6.528;2023-05-07T06:54:01;11.30;99.90
52965;DHT22;42923;53.220;6.528;2023-05-07T06:56:27;11.30;99.90
52965;DHT22;42923;53.220;6.528;2023-05-07T06:58:53;11.30;99.90
52965;DHT22;42923;53.220;6.528;2023-05-07T07:01:20;11.30;99.90
52965;DHT22;42923;53.220;6.528;2023-05-07T07:03:46;11.30;99.90
52965;DHT22;42923;53.220;6.528;2023-05-07T07:06:12;11.40;99.90
52965;DHT22;42923;53.220;6.528;2023-05-07T07:08:38;11.40;99.90
52965;DHT22;42923;53.220;6.528;2023-05-07T07:11:06;11.30;99.90
52965;DHT22;42923;53.220;6.528;2023-05-07T07:13:31;11.30;99.90
52965;DHT22;42923;53.220;6.528;2023-05-07T07:15:57;11.30;99.90
52965;DHT22;42923;53.220;6.528;2023-05-07T07:18:23;11.30;99.90
52965;DHT22;42923;53.220;6.528;2023-05-07T07:20:50;11.30;99.90
52965;DHT22;42923;53.220;6.528;2023-05-07T07:23:15;11.30;99.90
52965;DHT22;42923;53.220;6.528;2023-05-07T07:25:41;11.30;99.90
52965;DHT22;42923;53.220;6.528;2023-05-07T07:28:08;11.20;99.90
52965;DHT22;42923;53.220;6.528;2023-05-07T07:30:36;11.20;99.90
52965;DHT22;42923;53.220;6.528;2023-05-07T07:33:02;11.20;99.90
52965;DHT22;42923;53.220;6.528;2023-05-07T07:35:31;11.20;99.90
52965;DHT22;42923;53.220;6.528;2023-05-07T07:37:58;11.30;99.90
52965;DHT22;42923;53.220;6.528;2023-05-07T07:40:24;11.30;99.90
52965;DHT22;42923;53.220;6.528;2023-05-07T07:42:54;11.30;99.90
52965;DHT22;42923;53.220;6.528;2023-05-07T07:45:20;11.30;99.90
52965;DHT22;42923;53.220;6.528;2023-05-07T07:47:47;11.30;99.90
52965;DHT22;42923;53.220;6.528;2023-05-07T07:50:13;11.30;99.90
52965;DHT22;42923;53.220;6.528;2023-05-07T07:52:39;11.40;99.90
52965;DHT22;42923;53.220;6.528;2023-05-07T07:55:07;11.40;99.90
52965;DHT22;42923;53.220;6.528;2023-05-07T07:57:33;11.50;99.90
52965;DHT22;42923;53.220;6.528;2023-05-07T07:59:59;11.60;99.90
52965;DHT22;42923;53.220;6.528;2023-05-07T08:02:26;11.70;99.90
52965;DHT22;42923;53.220;6.528;2023-05-07T08:04:52;11.80;99.90
52965;DHT22;42923;53.220;6.528;2023-05-07T08:07:18;11.90;99.90
52965;DHT22;42923;53.220;6.528;2023-05-07T08:09:47;11.90;99.90
52965;DHT22;42923;53.220;6.528;2023-05-07T08:12:14;12.00;99.90
52965;DHT22;42923;53.220;6.528;2023-05-07T08:14:41;12.10;99.90
52965;DHT22;42923;53.220;6.528;2023-05-07T08:17:07;12.20;99.90
52965;DHT22;42923;53.220;6.528;2023-05-07T08:19:35;12.10;99.90
52965;DHT22;42923;53.220;6.528;2023-05-07T08:22:02;12.10;99.90
52965;DHT22;42923;53.220;6.528;2023-05-07T08:24:28;12.20;99.90
52965;DHT22;42923;53.220;6.528;2023-05-07T08:26:54;12.20;99.90
52965;DHT22;42923;53.220;6.528;2023-05-07T08:29:20;12.20;99.90
52965;DHT22;42923;53.220;6.528;2023-05-07T08:31:46;12.30;99.90
52965;DHT22;42923;53.220;6.528;2023-05-07T08:34:12;12.40;99.90
52965;DHT22;42923;53.220;6.528;2023-05-07T08:36:41;12.50;99.90
52965;DHT22;42923;53.220;6.528;2023-05-07T08:39:08;12.60;99.90
52965;DHT22;42923;53.220;6.528;2023-05-07T08:41:34;12.80;99.90
52965;DHT22;42923;53.220;6.528;2023-05-07T08:44:03;12.90;99.90
52965;DHT22;42923;53.220;6.528;2023-05-07T08:46:31;13.00;99.90
52965;DHT22;42923;53.220;6.528;2023-05-07T08:48:58;13.10;99.90
52965;DHT22;42923;53.220;6.528;2023-05-07T08:51:24;13.10;99.90
52965;DHT22;42923;53.220;6.528;2023-05-07T08:53:51;13.10;99.90
52965;DHT22;42923;53.220;6.528;2023-05-07T08:56:23;13.20;99.90
52965;DHT22;42923;53.220;6.528;2023-05-07T08:58:51;13.10;99.90
52965;DHT22;42923;53.220;6.528;2023-05-07T09:01:17;13.20;99.90
52965;DHT22;42923;53.220;6.528;2023-05-07T09:03:46;13.30;99.90
52965;DHT22;42923;53.220;6.528;2023-05-07T09:06:14;13.40;99.90
52965;DHT22;42923;53.220;6.528;2023-05-07T09:08:41;13.60;99.90
52965;DHT22;42923;53.220;6.528;2023-05-07T09:11:09;13.70;99.90
52965;DHT22;42923;53.220;6.528;2023-05-07T09:13:36;13.90;99.90
52965;DHT22;42923;53.220;6.528;2023-05-07T09:16:12;14.00;99.90
52965;DHT22;42923;53.220;6.528;2023-05-07T09:18:43;14.20;99.90
52965;DHT22;42923;53.220;6.528;2023-05-07T09:21:15;14.30;99.90
52965;DHT22;42923;53.220;6.528;2023-05-07T09:23:41;14.50;99.90
52965;DHT22;42923;53.220;6.528;2023-05-07T09:26:08;14.60;99.90
52965;DHT22;42923;53.220;6.528;2023-05-07T09:28:39;14.70;99.90
52965;DHT22;42923;53.220;6.528;2023-05-07T09:31:06;14.70;99.90
52965;DHT22;42923;53.220;6.528;2023-05-07T09:33:32;14.70;99.90
52965;DHT22;42923;53.220;6.528;2023-05-07T09:36:05;14.70;99.90
52965;DHT22;42923;53.220;6.528;2023-05-07T09:38:33;14.70;99.90
52965;DHT22;42923;53.220;6.528;2023-05-07T09:41:09;14.70;99.90
52965;DHT22;42923;53.220;6.528;2023-05-07T09:43:53;14.80;99.90
52965;DHT22;42923;53.220;6.528;2023-05-07T09:46:25;14.90;99.90
52965;DHT22;42923;53.220;6.528;2023-05-07T09:48:57;15.00;99.90
52965;DHT22;42923;53.220;6.528;2023-05-07T09:51:30;15.10;99.90
52965;DHT22;42923;53.220;6.528;2023-05-07T09:53:58;15.20;99.90
52965;DHT22;42923;53.220;6.528;2023-05-07T09:56:27;15.30;99.90
52965;DHT22;42923;53.220;6.528;2023-05-07T09:58:56;15.40;99.90
52965;DHT22;42923;53.220;6.528;2023-05-07T10:01:25;15.50;99.90
52965;DHT22;42923;53.220;6.528;2023-05-07T10:03:51;15.60;99.90
52965;DHT22;42923;53.220;6.528;2023-05-07T10:06:20;15.50;99.90
52965;DHT22;42923;53.220;6.528;2023-05-07T10:08:46;15.60;99.90
52965;DHT22;42923;53.220;6.528;2023-05-07T10:11:12;15.70;99.90
52965;DHT22;42923;53.220;6.528;2023-05-07T10:13:37;15.80;99.90
52965;DHT22;42923;53.220;6.528;2023-05-07T10:16:06;15.80;99.90
52965;DHT22;42923;53.220;6.528;2023-05-07T10:18:38;15.80;99.90
52965;DHT22;42923;53.220;6.528;2023-05-07T10:21:17;15.60;99.90
52965;DHT22;42923;53.220;6.528;2023-05-07T10:23:53;15.60;99.90
52965;DHT22;42923;53.220;6.528;2023-05-07T10:26:23;15.50;99.90
52965;DHT22;42923;53.220;6.528;2023-05-07T10:28:56;15.40;99.90
52965;DHT22;42923;53.220;6.528;2023-05-07T10:31:55;15.30;99.90
52965;DHT22;42923;53.220;6.528;2023-05-07T10:34:29;15.40;99.90
52965;DHT22;42923;53.220;6.528;2023-05-07T10:36:58;15.50;99.90
52965;DHT22;42923;53.220;6.528;2023-05-07T10:39:24;15.50;99.90
52965;DHT22;42923;53.220;6.528;2023-05-07T10:41:51;15.60;99.90
52965;DHT22;42923;53.220;6.528;2023-05-07T10:44:27;15.70;99.90
52965;DHT22;42923;53.220;6.528;2023-05-07T10:47:11;15.90;99.90
52965;DHT22;42923;53.220;6.528;2023-05-07T10:52:33;16.40;99.90
52965;DHT22;42923;53.220;6.528;2023-05-07T10:58:27;16.90;99.90
52965;DHT22;42923;53.220;6.528;2023-05-07T11:01:02;17.10;99.90
52965;DHT22;42923;53.220;6.528;2023-05-07T11:04:15;17.30;99.90
52965;DHT22;42923;53.220;6.528;2023-05-07T11:07:21;17.30;99.90
52965;DHT22;42923;53.220;6.528;2023-05-07T11:15:09;17.90;99.90
52965;DHT22;42923;53.220;6.528;2023-05-07T11:17:54;18.10;99.90
52965;DHT22;42923;53.220;6.528;2023-05-07T11:26:20;18.40;99.90
52965;DHT22;42923;53.220;6.528;2023-05-07T11:28:48;18.40;99.90
52965;DHT22;42923;53.220;6.528;2023-05-07T11:31:14;18.30;99.90
52965;DHT22;42923;53.220;6.528;2023-05-07T11:33:43;18.30;99.90
52965;DHT22;42923;53.220;6.528;2023-05-07T11:36:15;18.40;99.90
52965;DHT22;42923;53.220;6.528;2023-05-07T11:38:46;18.60;99.90
52965;DHT22;42923;53.220;6.528;2023-05-07T11:41:11;18.70;99.90
52965;DHT22;42923;53.220;6.528;2023-05-07T11:43:37;18.80;99.90
52965;DHT22;42923;53.220;6.528;2023-05-07T11:46:08;18.90;99.90
52965;DHT22;42923;53.220;6.528;2023-05-07T11:48:34;18.70;99.90
52965;DHT22;42923;53.220;6.528;2023-05-07T11:51:05;18.60;99.90
52965;DHT22;42923;53.220;6.528;2023-05-07T11:53:42;18.90;99.90
52965;DHT22;42923;53.220;6.528;2023-05-07T11:56:09;19.10;99.90
52965;DHT22;42923;53.220;6.528;2023-05-07T11:58:35;19.30;99.90
52965;DHT22;42923;53.220;6.528;2023-05-07T12:01:01;19.50;99.90
52965;DHT22;42923;53.220;6.528;2023-05-07T12:03:27;19.70;99.90
52965;DHT22;42923;53.220;6.528;2023-05-07T12:05:53;19.80;99.90
52965;DHT22;42923;53.220;6.528;2023-05-07T12:08:20;20.00;99.90
52965;DHT22;42923;53.220;6.528;2023-05-07T12:10:48;20.30;99.90
52965;DHT22;42923;53.220;6.528;2023-05-07T12:13:18;20.60;99.90
52965;DHT22;42923;53.220;6.528;2023-05-07T12:15:44;20.90;99.90
52965;DHT22;42923;53.220;6.528;2023-05-07T12:18:11;20.90;99.90
52965;DHT22;42923;53.220;6.528;2023-05-07T12:20:37;20.80;99.90
52965;DHT22;42923;53.220;6.528;2023-05-07T12:23:03;20.80;99.90
52965;DHT22;42923;53.220;6.528;2023-05-07T12:25:35;20.60;99.90
52965;DHT22;42923;53.220;6.528;2023-05-07T12:28:02;20.30;99.90
52965;DHT22;42923;53.220;6.528;2023-05-07T12:30:29;20.20;99.90
52965;DHT22;42923;53.220;6.528;2023-05-07T12:32:55;20.10;99.90
52965;DHT22;42923;53.220;6.528;2023-05-07T12:35:31;20.10;99.90
52965;DHT22;42923;53.220;6.528;2023-05-07T12:37:58;20.10;99.90
52965;DHT22;42923;53.220;6.528;2023-05-07T12:40:38;19.90;99.90
52965;DHT22;42923;53.220;6.528;2023-05-07T12:43:04;19.60;99.90
52965;DHT22;42923;53.220;6.528;2023-05-07T12:45:30;19.40;99.90
52965;DHT22;42923;53.220;6.528;2023-05-07T12:47:56;19.30;99.90
52965;DHT22;42923;53.220;6.528;2023-05-07T12:50:26;19.20;99.90
52965;DHT22;42923;53.220;6.528;2023-05-07T12:52:56;19.20;99.90
52965;DHT22;42923;53.220;6.528;2023-05-07T12:55:22;19.30;99.90
52965;DHT22;42923;53.220;6.528;2023-05-07T12:57:49;19.70;99.90
52965;DHT22;42923;53.220;6.528;2023-05-07T13:00:16;20.50;99.90
52965;DHT22;42923;53.220;6.528;2023-05-07T13:02:43;21.10;99.90
52965;DHT22;42923;53.220;6.528;2023-05-07T13:05:10;21.50;99.90
52965;DHT22;42923;53.220;6.528;2023-05-07T13:07:36;21.60;99.90
52965;DHT22;42923;53.220;6.528;2023-05-07T13:10:02;21.60;99.90
52965;DHT22;42923;53.220;6.528;2023-05-07T13:12:28;21.50;99.90
52965;DHT22;42923;53.220;6.528;2023-05-07T13:14:54;21.50;99.90
52965;DHT22;42923;53.220;6.528;2023-05-07T13:17:19;21.80;99.90
52965;DHT22;42923;53.220;6.528;2023-05-07T13:19:45;22.20;99.90
52965;DHT22;42923;53.220;6.528;2023-05-07T13:22:11;22.50;99.90
52965;DHT22;42923;53.220;6.528;2023-05-07T13:24:37;22.60;99.90
52965;DHT22;42923;53.220;6.528;2023-05-07T13:27:03;22.70;99.90
52965;DHT22;42923;53.220;6.528;2023-05-07T13:29:29;22.50;99.90
52965;DHT22;42923;53.220;6.528;2023-05-07T13:31:59;22.30;99.90
52965;DHT22;42923;53.220;6.528;2023-05-07T13:34:25;22.20;99.90
52965;DHT22;42923;53.220;6.528;2023-05-07T13:36:52;22.30;99.90
52965;DHT22;42923;53.220;6.528;2023-05-07T13:39:17;22.30;99.90
52965;DHT22;42923;53.220;6.528;2023-05-07T13:41:43;22.20;99.90
52965;DHT22;42923;53.220;6.528;2023-05-07T13:44:09;22.10;99.90
52965;DHT22;42923;53.220;6.528;2023-05-07T13:46:35;22.40;99.90
52965;DHT22;42923;53.220;6.528;2023-05-07T13:49:01;22.60;99.90
52965;DHT22;42923;53.220;6.528;2023-05-07T13:51:26;22.70;99.90
52965;DHT22;42923;53.220;6.528;2023-05-07T13:53:52;22.90;99.90
52965;DHT22;42923;53.220;6.528;2023-05-07T13:56:18;23.00;99.90
52965;DHT22;42923;53.220;6.528;2023-05-07T13:58:43;23.00;99.90
52965;DHT22;42923;53.220;6.528;2023-05-07T14:01:09;23.00;99.90
52965;DHT22;42923;53.220;6.528;2023-05-07T14:03:35;23.20;99.90
52965;DHT22;42923;53.220;6.528;2023-05-07T14:06:03;23.30;99.90
52965;DHT22;42923;53.220;6.528;2023-05-07T14:08:29;23.30;99.90
52965;DHT22;42923;53.220;6.528;2023-05-07T14:10:55;23.30;99.90
52965;DHT22;42923;53.220;6.528;2023-05-07T14:13:20;23.10;99.90
52965;DHT22;42923;53.220;6.528;2023-05-07T14:15:46;22.70;99.90
52965;DHT22;42923;53.220;6.528;2023-05-07T14:18:14;22.10;99.90
52965;DHT22;42923;53.220;6.528;2023-05-07T14:20:40;21.60;99.90
52965;DHT22;42923;53.220;6.528;2023-05-07T14:23:06;21.40;99.90
52965;DHT22;42923;53.220;6.528;2023-05-07T14:25:32;21.20;99.90
52965;DHT22;42923;53.220;6.528;2023-05-07T14:27:57;21.10;99.90
52965;DHT22;42923;53.220;6.528;2023-05-07T14:30:23;21.00;99.90
52965;DHT22;42923;53.220;6.528;2023-05-07T14:32:50;21.00;99.90
52965;DHT22;42923;53.220;6.528;2023-05-07T14:35:16;21.20;99.90
52965;DHT22;42923;53.220;6.528;2023-05-07T14:37:42;21.50;99.90
52965;DHT22;42923;53.220;6.528;2023-05-07T14:40:08;22.10;99.90
52965;DHT22;42923;53.220;6.528;2023-05-07T14:42:34;22.40;99.90
52965;DHT22;42923;53.220;6.528;2023-05-07T14:45:00;22.40;99.90
52965;DHT22;42923;53.220;6.528;2023-05-07T14:47:26;22.30;99.90
52965;DHT22;42923;53.220;6.528;2023-05-07T14:49:51;22.20;99.90
52965;DHT22;42923;53.220;6.528;2023-05-07T14:52:18;22.00;99.90
52965;DHT22;42923;53.220;6.528;2023-05-07T14:54:44;21.60;99.90
52965;DHT22;42923;53.220;6.528;2023-05-07T14:57:10;21.50;99.90
52965;DHT22;42923;53.220;6.528;2023-05-07T14:59:39;21.40;99.90
52965;DHT22;42923;53.220;6.528;2023-05-07T15:02:05;21.50;99.90
52965;DHT22;42923;53.220;6.528;2023-05-07T15:04:33;21.60;99.90
52965;DHT22;42923;53.220;6.528;2023-05-07T15:06:59;21.70;99.90
52965;DHT22;42923;53.220;6.528;2023-05-07T15:09:25;21.70;99.90
52965;DHT22;42923;53.220;6.528;2023-05-07T15:11:51;21.70;99.90
52965;DHT22;42923;53.220;6.528;2023-05-07T15:14:17;21.70;99.90
52965;DHT22;42923;53.220;6.528;2023-05-07T15:16:43;21.60;99.90
52965;DHT22;42923;53.220;6.528;2023-05-07T15:19:09;21.60;99.90
52965;DHT22;42923;53.220;6.528;2023-05-07T15:21:35;21.50;99.90
52965;DHT22;42923;53.220;6.528;2023-05-07T15:24:02;21.50;99.90
52965;DHT22;42923;53.220;6.528;2023-05-07T15:26:28;21.60;99.90
52965;DHT22;42923;53.220;6.528;2023-05-07T15:28:54;21.60;99.90
52965;DHT22;42923;53.220;6.528;2023-05-07T15:31:23;21.60;99.90
52965;DHT22;42923;53.220;6.528;2023-05-07T15:33:49;21.40;99.90
52965;DHT22;42923;53.220;6.528;2023-05-07T15:36:17;21.30;99.90
52965;DHT22;42923;53.220;6.528;2023-05-07T15:38:43;21.20;99.90
52965;DHT22;42923;53.220;6.528;2023-05-07T15:41:09;21.20;99.90
52965;DHT22;42923;53.220;6.528;2023-05-07T15:43:44;21.30;99.90
52965;DHT22;42923;53.220;6.528;2023-05-07T15:46:11;21.30;99.90
52965;DHT22;42923;53.220;6.528;2023-05-07T15:48:36;21.30;99.90
52965;DHT22;42923;53.220;6.528;2023-05-07T15:51:02;21.10;99.90
52965;DHT22;42923;53.220;6.528;2023-05-07T15:53:30;20.90;99.90